Terminal Aerodrome Forecast
Issued by NWS Des Moines, IA

Home | Current Version | Previous Version | Text Only | Print | Product List | Glossary On
Versions: 1 2 3 4 5 6 7 8 9 10 11 12 13 14 15 16 17 18 19 20 21
000
FTUS43 KDMX 180534
TAFALO
TAF
KALO 180534Z 1806/1906 23005KT 5SM BR SKC
     FM180700 VRB03KT 2SM BR SCT022
     FM180900 13003KT 1/2SM FG BKN009
     FM181300 15011KT 6SM BR BKN021
     FM181500 17018G28KT P6SM BKN150 WS020/20050KT
     FM190100 17014KT P6SM FEW200=

USA.gov is the U.S. government's official web portal to all federal, state and local government web resources and services.